createdAt,value
2022-10-06T00:01:15.317Z,99721.06
2022-10-06T00:03:43.898Z,99748.25
2022-10-06T00:06:13.190Z,99732.38
2022-10-06T00:08:42.993Z,99715.63
2022-10-06T00:11:12.280Z,99698.16
2022-10-06T00:13:40.743Z,99691.97
2022-10-06T00:16:12.455Z,99711.25
2022-10-06T00:18:40.486Z,99692.81
2022-10-06T00:21:08.298Z,99689.34
2022-10-06T00:23:36.899Z,99682.34
2022-10-06T00:26:04.932Z,99675.34
2022-10-06T00:28:33.540Z,99685.94
2022-10-06T00:31:03.072Z,99677.19
2022-10-06T00:33:32.429Z,99676.38
2022-10-06T00:36:00.949Z,99688.69
2022-10-06T00:38:29.528Z,99690.44
2022-10-06T00:40:58.035Z,99700.03
2022-10-06T00:43:43.084Z,99700.00
2022-10-06T00:46:14.970Z,99679.69
2022-10-06T00:48:45.811Z,99671.78
2022-10-06T00:51:14.293Z,99663.84
2022-10-06T00:53:43.701Z,99680.53
2022-10-06T00:56:13.093Z,99655.97
2022-10-06T00:58:40.957Z,99668.19
2022-10-06T01:01:12.637Z,99661.16
2022-10-06T01:03:44.778Z,99643.56
2022-10-06T01:06:14.645Z,99652.28
2022-10-06T01:08:42.999Z,99674.31
2022-10-06T01:11:14.502Z,99660.22
2022-10-06T01:13:45.735Z,99667.28
2022-10-06T01:16:19.663Z,99660.22
2022-10-06T01:18:48.964Z,99658.47
2022-10-06T01:21:27.931Z,99655.00
2022-10-06T01:23:58.648Z,99654.97
2022-10-06T01:26:28.549Z,99658.50
2022-10-06T01:28:57.028Z,99645.28
2022-10-06T01:31:25.610Z,99636.53
2022-10-06T01:33:54.470Z,99650.56
2022-10-06T01:36:22.759Z,99647.94
2022-10-06T01:38:50.705Z,99669.97
2022-10-06T01:41:19.943Z,99633.84
2022-10-06T01:43:47.925Z,99597.09
2022-10-06T01:46:16.386Z,99629.47
2022-10-06T01:48:44.422Z,99614.50
2022-10-06T01:51:15.971Z,99613.63
2022-10-06T01:53:44.189Z,99629.50
2022-10-06T01:56:12.333Z,99607.50
2022-10-06T01:58:41.689Z,99605.75
2022-10-06T02:01:11.203Z,99607.50
2022-10-06T02:03:40.378Z,99613.66
2022-10-06T02:06:09.978Z,99607.50
2022-10-06T02:08:38.197Z,99600.50
2022-10-06T02:11:09.103Z,99603.09
2022-10-06T02:13:37.924Z,99607.50
2022-10-06T02:16:08.505Z,99533.19
2022-10-06T02:18:36.954Z,99604.00
2022-10-06T02:21:05.522Z,99602.25
2022-10-06T02:23:34.401Z,99610.19
2022-10-06T02:26:03.471Z,99606.66
2022-10-06T02:28:32.611Z,99591.78
2022-10-06T02:31:04.325Z,99591.72
2022-10-06T02:33:34.445Z,99602.28
2022-10-06T02:36:02.595Z,99593.47
2022-10-06T02:38:32.820Z,99579.47
2022-10-06T02:41:02.002Z,99597.03
2022-10-06T02:43:31.876Z,99581.28
2022-10-06T02:46:03.009Z,99586.50
2022-10-06T02:48:31.831Z,99596.19
2022-10-06T02:51:03.407Z,99585.63
2022-10-06T02:53:31.469Z,99598.81
2022-10-06T02:56:00.809Z,99585.63
2022-10-06T02:58:30.948Z,99581.25
2022-10-06T03:01:03.822Z,99539.28
2022-10-06T03:03:32.253Z,99587.44
2022-10-06T03:06:02.573Z,99577.78
2022-10-06T03:08:31.083Z,99565.56
2022-10-06T03:11:03.720Z,99581.31
2022-10-06T03:13:32.137Z,99577.81
2022-10-06T03:16:00.052Z,99573.41
2022-10-06T03:18:28.405Z,99576.94
2022-10-06T03:21:02.348Z,99562.00
2022-10-06T03:23:30.300Z,99569.94
2022-10-06T03:25:58.618Z,99553.31
2022-10-06T03:28:27.069Z,99560.28
2022-10-06T03:30:55.835Z,99534.06
2022-10-06T03:33:23.855Z,99546.31
2022-10-06T03:36:00.058Z,99551.56
2022-10-06T03:38:31.118Z,99552.47
2022-10-06T03:41:07.181Z,99527.03
2022-10-06T03:43:35.759Z,99541.97
2022-10-06T03:46:05.662Z,99540.19
2022-10-06T03:48:35.221Z,99426.50
2022-10-06T03:51:05.083Z,99548.16
2022-10-06T03:53:36.442Z,99524.44
2022-10-06T03:56:06.979Z,99540.19
2022-10-06T03:58:37.036Z,99506.13
2022-10-06T04:01:07.810Z,99509.59
2022-10-06T04:03:36.103Z,99543.78
2022-10-06T04:06:06.531Z,99557.81
2022-10-06T04:08:36.777Z,99545.59
2022-10-06T04:11:10.041Z,99555.28
2022-10-06T04:13:38.460Z,99566.81
2022-10-06T04:16:15.922Z,99581.97
2022-10-06T04:18:45.412Z,99586.47
2022-10-06T04:21:14.493Z,99595.41
2022-10-06T04:23:43.884Z,99608.69
2022-10-06T04:26:14.503Z,99621.97
2022-10-06T04:28:44.177Z,99606.22
2022-10-06T04:31:16.030Z,99611.50
2022-10-06T04:33:45.842Z,99618.50
2022-10-06T04:36:16.934Z,99612.38
2022-10-06T04:38:46.136Z,99608.88
2022-10-06T04:41:16.345Z,99608.03
2022-10-06T04:43:46.462Z,99607.16
2022-10-06T04:46:41.028Z,99615.94
2022-10-06T04:49:03.065Z,99612.44
2022-10-06T04:51:31.173Z,99615.06
2022-10-06T04:54:01.178Z,99604.53
2022-10-06T04:56:31.259Z,99620.34
2022-10-06T04:58:59.789Z,99633.47
2022-10-06T05:01:30.444Z,99625.59
2022-10-06T05:04:01.141Z,99588.78
2022-10-06T05:06:31.208Z,99621.22
2022-10-06T05:09:02.813Z,99639.63
2022-10-06T05:11:31.942Z,99591.41
2022-10-06T05:14:00.387Z,99637.88
2022-10-06T05:16:30.460Z,99669.41
2022-10-06T05:18:58.691Z,99647.50
2022-10-06T05:21:28.575Z,99662.41
2022-10-06T05:23:57.094Z,99659.78
2022-10-06T05:26:28.726Z,99666.78
2022-10-06T05:28:56.854Z,99672.03
2022-10-06T05:31:27.168Z,99666.78
2022-10-06T05:33:55.786Z,99670.28
2022-10-06T05:36:25.831Z,99686.03
2022-10-06T05:38:53.807Z,99679.91
2022-10-06T05:41:24.095Z,99686.03
2022-10-06T05:43:54.044Z,99696.56
2022-10-06T05:46:25.249Z,99688.69
2022-10-06T05:48:55.644Z,99716.72
2022-10-06T05:51:30.038Z,99704.47
2022-10-06T05:53:58.456Z,99715.84
2022-10-06T05:56:28.316Z,99713.22
2022-10-06T05:58:58.973Z,99722.00
2022-10-06T06:01:28.433Z,99733.38
2022-10-06T06:03:59.613Z,99727.25
2022-10-06T06:06:29.594Z,99733.38
2022-10-06T06:08:59.104Z,99735.16
2022-10-06T06:11:28.022Z,99731.63
2022-10-06T06:13:59.438Z,99746.53
2022-10-06T06:16:27.235Z,99725.50
2022-10-06T06:18:55.669Z,99742.16
2022-10-06T06:21:23.660Z,99752.69
2022-10-06T06:23:51.523Z,99763.22
2022-10-06T06:26:23.627Z,99761.47
2022-10-06T06:28:52.521Z,99762.34
2022-10-06T06:31:23.953Z,99791.28
2022-10-06T06:33:54.076Z,99795.69
2022-10-06T06:36:23.316Z,99681.56
2022-10-06T06:38:52.763Z,99788.66
2022-10-06T06:41:22.114Z,99764.97
2022-10-06T06:43:50.772Z,99786.06
2022-10-06T06:46:20.488Z,99795.72
2022-10-06T06:48:51.598Z,99811.50
2022-10-06T06:51:23.012Z,99789.59
2022-10-06T06:53:51.374Z,99812.44
2022-10-06T06:56:19.569Z,99814.19
2022-10-06T06:58:49.020Z,99791.38
2022-10-06T07:01:19.085Z,99805.41
2022-10-06T07:03:57.218Z,99822.97
2022-10-06T07:06:28.843Z,99816.81
2022-10-06T07:08:57.947Z,99829.09
2022-10-06T07:11:28.727Z,99750.97
2022-10-06T07:13:59.046Z,99830.88
2022-10-06T07:16:44.590Z,99839.63
2022-10-06T07:19:33.276Z,99781.69
2022-10-06T07:22:20.164Z,99731.69
2022-10-06T07:25:06.116Z,99842.22
2022-10-06T07:27:37.614Z,99792.16
2022-10-06T07:30:05.907Z,99861.50
2022-10-06T07:32:34.026Z,99834.19
2022-10-06T07:35:04.321Z,99859.69
2022-10-06T07:37:32.285Z,99871.16
2022-10-06T07:40:00.225Z,99764.13
2022-10-06T07:42:28.058Z,99843.13
2022-10-06T07:45:13.762Z,99896.72
2022-10-06T07:47:41.727Z,99902.00
2022-10-06T07:50:12.966Z,99894.09
2022-10-06T07:52:40.903Z,99902.00
2022-10-06T07:55:09.497Z,99892.31
2022-10-06T07:57:37.459Z,99884.44
2022-10-06T08:00:07.563Z,99907.25
2022-10-06T08:02:36.100Z,99903.75
2022-10-06T08:05:04.987Z,99913.41
2022-10-06T08:07:34.303Z,99924.81
2022-10-06T08:10:02.148Z,99900.22
2022-10-06T08:12:38.083Z,99912.53
2022-10-06T08:15:07.902Z,99927.47
2022-10-06T08:17:37.611Z,99908.13
2022-10-06T08:20:07.347Z,99936.25
2022-10-06T08:22:38.815Z,99919.56
2022-10-06T08:25:07.663Z,99930.09
2022-10-06T08:27:37.058Z,99940.63
2022-10-06T08:30:05.612Z,99952.03
2022-10-06T08:32:35.003Z,99929.19
2022-10-06T08:35:04.181Z,99949.41
2022-10-06T08:37:32.226Z,99972.25
2022-10-06T08:40:01.677Z,99963.47
2022-10-06T08:42:37.455Z,99974.84
2022-10-06T08:45:12.100Z,99979.16
2022-10-06T08:47:43.867Z,99954.50
2022-10-06T08:50:13.863Z,100001.00
2022-10-06T08:52:52.035Z,99994.78
2022-10-06T08:55:43.677Z,100004.56
2022-10-06T08:58:31.661Z,100033.66
2022-10-06T09:01:10.641Z,100017.78
2022-10-06T09:03:39.010Z,100002.72
2022-10-06T09:06:17.978Z,100010.53
2022-10-06T09:08:51.213Z,100023.63
2022-10-06T09:11:43.442Z,100026.16
2022-10-06T09:14:17.172Z,100036.66
2022-10-06T09:16:50.521Z,100066.63
2022-10-06T09:19:24.816Z,100043.81
2022-10-06T09:21:54.893Z,100050.84
2022-10-06T09:24:31.318Z,100049.94
2022-10-06T09:27:00.755Z,100078.91
2022-10-06T09:29:31.961Z,100116.84
2022-10-06T09:32:00.084Z,100071.13
2022-10-06T09:34:37.702Z,100042.38
2022-10-06T09:37:08.067Z,100084.66
2022-10-06T09:39:38.542Z,100082.03
2022-10-06T09:42:14.549Z,100088.19
2022-10-06T09:44:54.705Z,100068.84
2022-10-06T09:47:41.892Z,100080.22
2022-10-06T09:50:22.239Z,100087.28
2022-10-06T09:53:16.340Z,100087.25
2022-10-06T09:55:54.633Z,100112.78
2022-10-06T09:58:34.361Z,100108.44
2022-10-06T10:01:04.443Z,100115.53
2022-10-06T10:04:01.865Z,100105.00
2022-10-06T10:06:36.198Z,100118.16
2022-10-06T10:09:28.320Z,100128.69
2022-10-06T10:12:21.685Z,100128.69
2022-10-06T10:14:51.273Z,100141.91
2022-10-06T10:17:23.420Z,100144.56
2022-10-06T10:19:55.111Z,100148.09
2022-10-06T10:22:26.246Z,100137.56
2022-10-06T10:25:05.518Z,100168.34
2022-10-06T10:27:40.923Z,100154.28
2022-10-06T10:30:12.580Z,100155.16
2022-10-06T10:33:00.943Z,100147.25
2022-10-06T10:35:32.276Z,100146.38
2022-10-06T10:38:06.116Z,100168.34
2022-10-06T10:40:38.631Z,100156.03
2022-10-06T10:43:24.265Z,100156.91
2022-10-06T10:45:59.764Z,100134.06
2022-10-06T10:48:33.694Z,100167.47
2022-10-06T10:51:08.221Z,100177.16
2022-10-06T10:53:47.967Z,100172.75
2022-10-06T10:56:19.578Z,100190.34
2022-10-06T10:58:50.301Z,100195.63
2022-10-06T11:01:29.607Z,100199.16
2022-10-06T11:03:59.506Z,100198.28
2022-10-06T11:06:57.046Z,100156.03
2022-10-06T11:09:30.141Z,100211.47
2022-10-06T11:12:14.009Z,100172.75
2022-10-06T11:14:54.754Z,100227.28
2022-10-06T11:17:50.369Z,100229.03
2022-10-06T11:20:38.019Z,100213.19
2022-10-06T11:23:26.477Z,100263.28
2022-10-06T11:26:05.641Z,100232.53
2022-10-06T11:28:41.656Z,100233.44
2022-10-06T11:31:22.710Z,100229.94
2022-10-06T11:33:54.770Z,100242.28
2022-10-06T11:36:34.637Z,100207.94
2022-10-06T11:39:08.577Z,100221.13
2022-10-06T11:41:45.216Z,100251.91
2022-10-06T11:44:22.472Z,100221.13
2022-10-06T11:46:56.729Z,100253.66
2022-10-06T11:49:52.130Z,100253.59
2022-10-06T11:52:57.012Z,100264.09
2022-10-06T11:55:29.095Z,100275.50
2022-10-06T11:58:40.955Z,100264.09
2022-10-06T12:01:06.037Z,100284.34
2022-10-06T12:04:13.471Z,100274.72
2022-10-06T12:07:10.935Z,100290.66
2022-10-06T12:09:52.478Z,100279.22
2022-10-06T12:12:43.844Z,100297.72
2022-10-06T12:17:08.608Z,100295.09
2022-10-06T12:18:39.547Z,100275.69
2022-10-06T12:21:28.612Z,100292.31
2022-10-06T12:24:05.696Z,100293.19
2022-10-06T12:26:49.582Z,100291.41
2022-10-06T12:29:34.716Z,100297.63
2022-10-06T12:32:18.041Z,100350.56
2022-10-06T12:34:57.803Z,100275.72
2022-10-06T12:37:41.473Z,100337.38
2022-10-06T12:40:49.308Z,100318.88
2022-10-06T12:43:55.090Z,100322.44
2022-10-06T12:46:34.075Z,100311.78
2022-10-06T12:49:18.245Z,100288.91
2022-10-06T12:51:48.162Z,100293.25
2022-10-06T12:54:20.502Z,100331.97
2022-10-06T12:56:59.710Z,100343.41
2022-10-06T12:59:29.295Z,100326.63
2022-10-06T13:01:59.929Z,100328.38
2022-10-06T13:04:41.387Z,100338.19
2022-10-06T13:07:17.318Z,100335.59
2022-10-06T13:09:46.417Z,100352.31
2022-10-06T13:12:37.910Z,100324.03
2022-10-06T13:15:33.308Z,100318.75
2022-10-06T13:18:11.809Z,100375.22
2022-10-06T13:20:43.051Z,100341.66
2022-10-06T13:23:24.837Z,100350.34
2022-10-06T13:25:56.569Z,100338.09
2022-10-06T13:28:50.702Z,100353.16
2022-10-06T13:31:21.647Z,100357.59
2022-10-06T13:33:52.520Z,100351.44
2022-10-06T13:36:23.625Z,100351.25
2022-10-06T13:38:53.346Z,100352.66
2022-10-06T13:41:27.189Z,100359.94
2022-10-06T13:44:00.221Z,100379.97
2022-10-06T13:46:31.208Z,100406.44
2022-10-06T13:49:03.531Z,100378.28
2022-10-06T13:51:33.709Z,100380.34
2022-10-06T13:54:07.078Z,100403.34
2022-10-06T13:56:38.448Z,100400.66
2022-10-06T13:59:32.858Z,100384.69
2022-10-06T14:02:03.962Z,100395.16
2022-10-06T14:04:34.698Z,100347.63
2022-10-06T14:07:05.899Z,100394.16
2022-10-06T14:09:35.161Z,100381.75
2022-10-06T14:12:05.945Z,100378.88
2022-10-06T14:14:35.533Z,100368.09
2022-10-06T14:17:03.758Z,100362.66
2022-10-06T14:19:34.898Z,100369.75
2022-10-06T14:22:03.979Z,100369.47
2022-10-06T14:24:34.263Z,100366.75
2022-10-06T14:27:04.015Z,100347.41
2022-10-06T14:29:32.752Z,100298.22
2022-10-06T14:32:10.718Z,100379.31
2022-10-06T14:34:39.120Z,100366.16
2022-10-06T14:37:07.051Z,100287.28
2022-10-06T14:39:34.919Z,100421.13
2022-10-06T14:42:03.085Z,100434.25
2022-10-06T14:44:31.187Z,100411.50
2022-10-06T14:46:59.105Z,100398.94
2022-10-06T14:49:29.001Z,100404.31
2022-10-06T14:51:57.036Z,100393.91
2022-10-06T14:54:25.338Z,100429.34
2022-10-06T14:56:53.618Z,100436.69
2022-10-06T14:59:22.697Z,100451.81
2022-10-06T15:01:50.797Z,100465.13
2022-10-06T15:04:21.024Z,100461.59
2022-10-06T15:07:07.874Z,100429.88
2022-10-06T15:09:36.886Z,100470.38
2022-10-06T15:12:05.339Z,100465.94
2022-10-06T15:14:35.148Z,100444.75
2022-10-06T15:17:03.585Z,100482.63
2022-10-06T15:19:31.484Z,100544.25
2022-10-06T15:22:01.179Z,100492.28
2022-10-06T15:24:29.272Z,100506.34
2022-10-06T15:27:14.496Z,100501.94
2022-10-06T15:29:42.626Z,100552.94
2022-10-06T15:32:10.703Z,100406.47
2022-10-06T15:34:38.793Z,100523.00
2022-10-06T15:37:08.176Z,100529.13
2022-10-06T15:39:37.864Z,100528.19
2022-10-06T15:42:06.960Z,100529.06
2022-10-06T15:44:35.201Z,100529.03
2022-10-06T15:47:05.155Z,100540.47
2022-10-06T15:49:38.142Z,100547.50
2022-10-06T15:52:08.218Z,100555.38
2022-10-06T15:54:38.802Z,100545.69
2022-10-06T15:57:08.563Z,100557.09
2022-10-06T15:59:37.257Z,100561.47
2022-10-06T16:02:07.919Z,100581.66
2022-10-06T16:04:48.708Z,100613.28
2022-10-06T16:07:19.727Z,100595.69
2022-10-06T16:09:49.170Z,100610.59
2022-10-06T16:12:19.240Z,100558.41
2022-10-06T16:14:47.661Z,100602.69
2022-10-06T16:17:16.386Z,100599.97
2022-10-06T16:19:44.972Z,100613.16
2022-10-06T16:22:14.551Z,100602.53
2022-10-06T16:24:43.957Z,100609.53
2022-10-06T16:27:12.886Z,100620.09
2022-10-06T16:29:40.872Z,100627.13
2022-10-06T16:32:09.192Z,100636.75
2022-10-06T16:34:37.076Z,100618.25
2022-10-06T16:37:05.125Z,100623.53
2022-10-06T16:39:33.140Z,100638.47
2022-10-06T16:42:02.387Z,100643.72
2022-10-06T16:44:30.411Z,100654.25
2022-10-06T16:46:58.603Z,100649.84
2022-10-06T16:49:28.225Z,100655.09
2022-10-06T16:51:56.166Z,100663.84
2022-10-06T16:54:24.187Z,100663.84
2022-10-06T16:56:54.235Z,100659.47
2022-10-06T16:59:26.176Z,100652.47
2022-10-06T17:01:54.170Z,100663.88
2022-10-06T17:04:23.367Z,100677.03
2022-10-06T17:06:52.974Z,100656.88
2022-10-06T17:09:22.839Z,100662.13
2022-10-06T17:11:52.402Z,100674.41
2022-10-06T17:14:21.694Z,100676.13
2022-10-06T17:16:52.457Z,100666.47
2022-10-06T17:19:21.905Z,100678.72
2022-10-06T17:21:55.636Z,100661.00
2022-10-06T17:24:28.193Z,100704.22
2022-10-06T17:26:57.810Z,100676.94
2022-10-06T17:29:26.414Z,100711.16
2022-10-06T17:31:59.307Z,100645.88
2022-10-06T17:34:33.408Z,100697.06
2022-10-06T17:37:02.466Z,100683.84
2022-10-06T17:39:30.611Z,100676.69
2022-10-06T17:41:58.455Z,100688.16
2022-10-06T17:44:28.658Z,100691.66
2022-10-06T17:47:00.573Z,100677.41
2022-10-06T17:49:30.678Z,100695.16
2022-10-06T17:51:58.665Z,100691.66
2022-10-06T17:54:28.850Z,100689.00
2022-10-06T17:56:59.344Z,100684.53
2022-10-06T17:59:30.418Z,100687.25
2022-10-06T18:02:02.971Z,100682.88
2022-10-06T18:04:31.609Z,100688.16
2022-10-06T18:07:00.144Z,100692.56
2022-10-06T18:09:28.337Z,100684.72
2022-10-06T18:11:56.468Z,100667.91
2022-10-06T18:14:26.772Z,100689.13
2022-10-06T18:16:58.015Z,100688.22
2022-10-06T18:19:30.293Z,100698.75
2022-10-06T18:22:01.233Z,100685.56
2022-10-06T18:24:31.016Z,100687.34
2022-10-06T18:27:00.915Z,100690.00
2022-10-06T18:29:31.581Z,100712.78
2022-10-06T18:32:34.807Z,100695.19
2022-10-06T18:37:39.826Z,100690.78
2022-10-06T18:40:10.234Z,100710.94
2022-10-06T18:42:39.141Z,100658.72
2022-10-06T18:45:26.902Z,100741.56
2022-10-06T18:48:12.245Z,100715.16
2022-10-06T18:50:41.784Z,100690.31
2022-10-06T18:53:09.751Z,100711.59
2022-10-06T18:55:37.663Z,100718.66
2022-10-06T18:58:06.590Z,100692.94
2022-10-06T19:00:34.848Z,100722.19
2022-10-06T19:03:02.670Z,100725.69
2022-10-06T19:05:31.163Z,100735.28
2022-10-06T19:08:00.947Z,100734.38
2022-10-06T19:10:29.829Z,100727.31
2022-10-06T19:12:58.506Z,100755.41
2022-10-06T19:15:26.489Z,100734.34
2022-10-06T19:17:54.314Z,100743.97
2022-10-06T19:20:22.445Z,100751.84
2022-10-06T19:22:50.490Z,100737.78
2022-10-06T19:25:19.762Z,100732.44
2022-10-06T19:27:51.320Z,100741.19
2022-10-06T19:30:19.323Z,100736.72
2022-10-06T19:32:47.191Z,100753.38
2022-10-06T19:35:15.323Z,100738.41
2022-10-06T19:37:43.612Z,100748.91
2022-10-06T19:40:11.811Z,100753.25
2022-10-06T19:42:48.986Z,100742.69
2022-10-06T19:45:18.519Z,100759.34
2022-10-06T19:47:47.101Z,100776.06
2022-10-06T19:50:16.509Z,100763.75
2022-10-06T19:52:45.229Z,100776.91
2022-10-06T19:55:13.144Z,100779.53
2022-10-06T19:57:43.208Z,100798.91
2022-10-06T20:00:12.638Z,100737.00
2022-10-06T20:02:42.921Z,100824.44
2022-10-06T20:05:12.652Z,100785.84
2022-10-06T20:07:40.887Z,100790.25
2022-10-06T20:10:09.209Z,100804.19
2022-10-06T20:12:38.430Z,100747.59
2022-10-06T20:15:09.771Z,100799.88
2022-10-06T20:17:37.856Z,100768.03
2022-10-06T20:20:06.731Z,100801.75
2022-10-06T20:22:34.630Z,100796.50
2022-10-06T20:25:02.626Z,100801.66
2022-10-06T20:27:30.896Z,100827.13
2022-10-06T20:29:59.121Z,100795.56
2022-10-06T20:32:28.517Z,100811.19
2022-10-06T20:34:58.091Z,100811.31
2022-10-06T20:37:26.065Z,100813.03
2022-10-06T20:40:11.377Z,100818.28
2022-10-06T20:42:44.667Z,100820.03
2022-10-06T20:45:12.702Z,100824.44
2022-10-06T20:47:42.224Z,100821.81
2022-10-06T20:50:11.218Z,100827.97
2022-10-06T20:52:39.677Z,100828.84
2022-10-06T20:55:08.860Z,100835.84
2022-10-06T20:57:36.949Z,100781.75
2022-10-06T21:00:05.525Z,100812.63
2022-10-06T21:02:33.902Z,100838.47
2022-10-06T21:05:03.518Z,100855.13
2022-10-06T21:07:31.940Z,100831.25
2022-10-06T21:09:59.789Z,100840.19
2022-10-06T21:12:28.497Z,100824.75
2022-10-06T21:14:57.107Z,100849.81
2022-10-06T21:17:24.976Z,100843.66
2022-10-06T21:19:53.015Z,100828.56
2022-10-06T21:22:22.399Z,100856.81
2022-10-06T21:24:50.276Z,100841.84
2022-10-06T21:27:19.013Z,100871.59
2022-10-06T21:29:47.299Z,100824.69
2022-10-06T21:32:15.143Z,100836.13
2022-10-06T21:34:43.064Z,100861.69
2022-10-06T21:37:13.789Z,100859.88
2022-10-06T21:39:43.100Z,100856.38
2022-10-06T21:42:11.125Z,100846.69
2022-10-06T21:44:39.446Z,100874.72
2022-10-06T21:47:07.292Z,100858.06
2022-10-06T21:49:35.250Z,100823.41
2022-10-06T21:52:05.491Z,100876.50
2022-10-06T21:54:33.545Z,100858.94
2022-10-06T21:57:02.883Z,100856.31
2022-10-06T21:59:31.009Z,100854.53
2022-10-06T22:01:59.652Z,100871.22
2022-10-06T22:04:27.925Z,100861.56
2022-10-06T22:06:55.856Z,100873.88
2022-10-06T22:09:23.821Z,100852.88
2022-10-06T22:11:51.849Z,100835.88
2022-10-06T22:14:21.459Z,100866.09
2022-10-06T22:16:49.363Z,100865.19
2022-10-06T22:19:18.050Z,100874.00
2022-10-06T22:21:47.569Z,100874.91
2022-10-06T22:24:17.550Z,100876.66
2022-10-06T22:26:45.736Z,100860.63
2022-10-06T22:29:15.899Z,100889.75
2022-10-06T22:31:47.413Z,100902.06
2022-10-06T22:34:18.288Z,100892.47
2022-10-06T22:36:46.088Z,100902.19
2022-10-06T22:39:14.107Z,100852.50
2022-10-06T22:41:42.128Z,100900.38
2022-10-06T22:44:09.987Z,100909.94
2022-10-06T22:46:38.824Z,100895.06
2022-10-06T22:49:08.479Z,100876.44
2022-10-06T22:51:36.436Z,100885.25
2022-10-06T22:54:04.878Z,100894.81
2022-10-06T22:56:34.534Z,100900.88
2022-10-06T22:59:02.504Z,100886.84
2022-10-06T23:01:31.259Z,100906.97
2022-10-06T23:03:59.332Z,100916.63
2022-10-06T23:06:31.145Z,100893.81
2022-10-06T23:09:00.012Z,100879.56
2022-10-06T23:11:28.595Z,100899.78
2022-10-06T23:13:56.514Z,100888.31
2022-10-06T23:16:25.073Z,100848.44
2022-10-06T23:18:53.116Z,100889.06
2022-10-06T23:21:22.970Z,100891.69
2022-10-06T23:23:55.091Z,100882.94
2022-10-06T23:26:24.175Z,100898.72
2022-10-06T23:28:53.860Z,100888.09
2022-10-06T23:31:22.432Z,100919.66
2022-10-06T23:33:50.380Z,100897.72
2022-10-06T23:36:18.897Z,100902.06
2022-10-06T23:38:47.791Z,100903.59
2022-10-06T23:41:17.111Z,100909.94
2022-10-06T23:43:45.599Z,100909.91
2022-10-06T23:46:13.761Z,100906.34
2022-10-06T23:48:41.723Z,100927.34
2022-10-06T23:51:11.561Z,100940.53
2022-10-06T23:53:39.638Z,100937.03
2022-10-06T23:56:08.343Z,100913.16
2022-10-06T23:58:38.089Z,100919.28
